Time;durP1;ratioP1;P1;durP2;ratioP2;P2;SDS_P1;SDS_P2;PMS_P1;PMS_P2;Temp;Humidity;BMP_temperature;BMP_pressure;BME280_temperature;BME280_humidity;BME280_pressure;Samples;Min_cycle;Max_cycle;Signal;HPM_P1;HPM_P2
2024/03/19 00:03:56;;;;;;;9.13;2.93;;;;;10.00;101194.00;;;;9963748;29;20614;-79
2024/03/19 00:08:57;;;;;;;5.13;2.73;;;;;10.00;101196.00;;;;9989601;29;20264;-81
2024/03/19 00:13:58;;;;;;;5.97;2.57;;;;;10.10;101202.00;;;;9986716;29;20230;-78
2024/03/19 00:19:00;;;;;;;6.53;2.47;;;;;10.10;101187.00;;;;9969819;29;20658;-79
2024/03/19 00:24:02;;;;;;;4.47;2.20;;;;;10.00;101188.00;;;;9952786;29;20316;-78
2024/03/19 00:29:03;;;;;;;5.83;2.43;;;;;9.90;101193.00;;;;9958596;29;20921;-78
2024/03/19 00:34:04;;;;;;;5.23;2.50;;;;;9.90;101199.00;;;;9967230;29;20233;-78
2024/03/19 00:39:10;;;;;;;8.93;2.37;;;;;9.80;101209.00;;;;9962278;29;20233;-79
2024/03/19 00:44:11;;;;;;;12.33;3.17;;;;;9.80;101216.00;;;;9974125;29;20830;-78
2024/03/19 00:49:12;;;;;;;10.97;2.33;;;;;9.80;101214.00;;;;9973470;29;20636;-78
2024/03/19 00:54:13;;;;;;;12.23;2.70;;;;;9.90;101203.00;;;;9983890;29;20296;-78
2024/03/19 00:59:14;;;;;;;8.30;3.00;;;;;9.90;101206.00;;;;9960670;29;20762;-78
2024/03/19 01:04:15;;;;;;;10.10;3.47;;;;;10.00;101204.00;;;;9960458;29;20863;-78
2024/03/19 01:09:18;;;;;;;7.37;2.93;;;;;10.00;101206.00;;;;9976206;29;20898;-78
2024/03/19 01:14:20;;;;;;;8.67;3.00;;;;;10.00;101207.00;;;;9980430;29;20260;-78
2024/03/19 01:19:21;;;;;;;7.10;3.00;;;;;10.10;101201.00;;;;9967772;29;20648;-78
2024/03/19 01:24:23;;;;;;;9.40;3.00;;;;;10.10;101197.00;;;;9949687;29;20320;-79
2024/03/19 01:29:24;;;;;;;9.47;3.17;;;;;10.10;101191.00;;;;9969670;29;20260;-79
2024/03/19 01:34:25;;;;;;;6.53;2.73;;;;;10.10;101194.00;;;;9963653;29;20320;-78
2024/03/19 01:39:26;;;;;;;8.10;2.60;;;;;10.10;101194.00;;;;9966699;29;20500;-78
2024/03/19 01:44:27;;;;;;;9.70;2.97;;;;;10.10;101182.00;;;;9961896;29;20739;-78
2024/03/19 01:49:30;;;;;;;15.30;3.10;;;;;10.20;101192.00;;;;9966474;29;20312;-78
2024/03/19 01:54:32;;;;;;;10.70;3.23;;;;;10.20;101194.00;;;;9990842;29;20273;-79
2024/03/19 01:59:35;;;;;;;8.60;2.50;;;;;10.30;101195.00;;;;9967811;29;20264;-78
2024/03/19 02:04:38;;;;;;;5.47;2.83;;;;;10.30;101181.00;;;;10013664;29;20279;-77
2024/03/19 02:09:40;;;;;;;10.20;3.63;;;;;10.30;101174.00;;;;9986655;29;20272;-82
2024/03/19 02:14:41;;;;;;;8.70;3.20;;;;;10.30;101173.00;;;;9974742;29;20233;-82
2024/03/19 02:19:43;;;;;;;7.97;2.90;;;;;10.30;101179.00;;;;9974571;29;20629;-81
2024/03/19 02:24:44;;;;;;;9.23;2.90;;;;;10.30;101173.00;;;;9988813;29;20637;-82
2024/03/19 02:29:45;;;;;;;6.93;2.40;;;;;10.30;101173.00;;;;9961920;29;20233;-81
2024/03/19 02:34:47;;;;;;;7.70;2.57;;;;;10.30;101164.00;;;;9955063;29;20257;-81
2024/03/19 02:39:48;;;;;;;7.97;2.60;;;;;10.30;101166.00;;;;9967265;29;20233;-83
2024/03/19 02:44:49;;;;;;;8.27;2.43;;;;;10.20;101165.00;;;;9974247;29;20264;-82
2024/03/19 02:49:50;;;;;;;9.23;2.77;;;;;10.20;101149.00;;;;9953569;29;20314;-81
2024/03/19 02:54:51;;;;;;;10.27;2.60;;;;;10.30;101150.00;;;;9950540;29;20308;-82
2024/03/19 02:59:52;;;;;;;7.20;2.60;;;;;10.30;101149.00;;;;9961881;29;20309;-82
2024/03/19 03:04:54;;;;;;;7.93;2.67;;;;;10.30;101146.00;;;;9969794;29;20286;-82
2024/03/19 03:09:56;;;;;;;5.43;2.80;;;;;10.30;101144.00;;;;9969664;29;20673;-82
2024/03/19 03:14:58;;;;;;;9.17;2.97;;;;;10.30;101145.00;;;;9964488;29;20272;-81
2024/03/19 03:19:59;;;;;;;8.53;2.43;;;;;10.30;101144.00;;;;9968148;29;20235;-78
2024/03/19 03:25:06;;;;;;;9.00;2.73;;;;;10.30;101147.00;;;;9993039;29;20350;-80
2024/03/19 03:30:10;;;;;;;7.13;2.47;;;;;10.30;101145.00;;;;9978682;29;20287;-78
2024/03/19 03:35:13;;;;;;;10.40;2.80;;;;;10.30;101150.00;;;;9970064;29;20923;-78
2024/03/19 03:40:23;;;;;;;12.33;3.27;;;;;10.30;101157.00;;;;9991735;29;20776;-78
2024/03/19 03:45:24;;;;;;;7.97;3.50;;;;;10.30;101155.00;;;;9968399;29;20229;-78
2024/03/19 03:50:26;;;;;;;7.27;3.13;;;;;10.30;101156.00;;;;9965940;29;20244;-79
2024/03/19 03:55:27;;;;;;;9.80;3.50;;;;;10.30;101149.00;;;;9967372;29;20222;-78
2024/03/19 04:00:29;;;;;;;9.83;3.73;;;;;10.20;101158.00;;;;9965264;29;20230;-78
2024/03/19 04:05:30;;;;;;;7.93;2.97;;;;;10.20;101164.00;;;;9978906;29;20620;-78
2024/03/19 04:10:31;;;;;;;6.80;3.33;;;;;10.20;101173.00;;;;9964679;29;20321;-79
2024/03/19 04:15:32;;;;;;;12.17;3.33;;;;;10.20;101175.00;;;;9987740;29;20270;-78
2024/03/19 04:20:34;;;;;;;11.03;3.60;;;;;10.20;101176.00;;;;9988773;29;20226;-78
2024/03/19 04:25:35;;;;;;;9.63;3.00;;;;;10.30;101166.00;;;;9940357;29;20254;-78
2024/03/19 04:30:36;;;;;;;10.10;3.27;;;;;10.30;101174.00;;;;9964227;29;20276;-81
2024/03/19 04:35:37;;;;;;;11.40;4.23;;;;;10.30;101176.00;;;;9952615;29;20374;-81
2024/03/19 04:40:38;;;;;;;10.67;3.80;;;;;10.30;101171.00;;;;9972660;29;20267;-80
2024/03/19 04:45:40;;;;;;;8.97;3.57;;;;;10.20;101185.00;;;;9945976;29;20241;-80
2024/03/19 04:50:41;;;;;;;10.23;3.37;;;;;10.20;101184.00;;;;9951344;29;20249;-81
2024/03/19 04:55:42;;;;;;;7.87;3.47;;;;;10.20;101177.00;;;;9986512;29;20753;-81
2024/03/19 05:00:43;;;;;;;7.67;3.70;;;;;10.20;101182.00;;;;9970516;29;20233;-80
2024/03/19 05:05:44;;;;;;;13.13;3.60;;;;;10.20;101180.00;;;;9994369;29;20255;-81
2024/03/19 05:10:45;;;;;;;12.97;4.20;;;;;10.20;101175.00;;;;9956590;29;20649;-80
2024/03/19 05:15:47;;;;;;;8.33;3.90;;;;;10.10;101184.00;;;;9965920;29;20340;-81
2024/03/19 05:20:48;;;;;;;11.33;3.70;;;;;10.10;101180.00;;;;9983035;29;20265;-81
2024/03/19 05:25:49;;;;;;;11.63;4.03;;;;;10.10;101179.00;;;;9973816;29;20905;-81
2024/03/19 05:30:50;;;;;;;8.80;3.47;;;;;10.10;101186.00;;;;10005902;29;20768;-81
2024/03/19 05:35:51;;;;;;;9.77;4.20;;;;;10.10;101182.00;;;;9970984;29;20298;-81
2024/03/19 05:40:53;;;;;;;10.57;4.20;;;;;10.10;101186.00;;;;9964183;29;20244;-82
2024/03/19 05:45:55;;;;;;;11.87;4.07;;;;;10.00;101199.00;;;;9975804;29;20633;-82
2024/03/19 05:50:58;;;;;;;9.53;3.90;;;;;10.00;101202.00;;;;9951914;29;20305;-82
2024/03/19 05:56:01;;;;;;;6.97;3.33;;;;;10.00;101198.00;;;;9944038;29;20226;-82
2024/03/19 06:01:03;;;;;;;12.80;3.33;;;;;10.00;101196.00;;;;9955046;29;20264;-81
2024/03/19 06:06:10;;;;;;;14.70;3.73;;;;;10.10;101202.00;;;;9964189;29;20231;-81
2024/03/19 06:11:12;;;;;;;13.00;3.67;;;;;10.10;101202.00;;;;9967791;29;20649;-82
2024/03/19 06:16:13;;;;;;;15.10;3.63;;;;;10.10;101201.00;;;;9981757;29;20895;-81
2024/03/19 06:21:14;;;;;;;9.77;3.50;;;;;10.20;101203.00;;;;9973401;29;20229;-81
2024/03/19 06:26:15;;;;;;;12.43;4.00;;;;;10.30;101199.00;;;;9964278;29;20316;-81
2024/03/19 06:31:17;;;;;;;14.60;3.57;;;;;10.40;101190.00;;;;9949035;29;20963;-81
2024/03/19 06:36:18;;;;;;;15.90;4.60;;;;;10.60;101187.00;;;;9951211;29;20230;-82
2024/03/19 06:41:19;;;;;;;9.70;3.50;;;;;10.80;101191.00;;;;9984636;29;20767;-81
2024/03/19 06:46:20;;;;;;;10.37;3.90;;;;;11.00;101178.00;;;;9994235;29;20904;-82
2024/03/19 06:51:21;;;;;;;10.30;4.03;;;;;11.20;101176.00;;;;9971131;29;20269;-82
2024/03/19 06:56:23;;;;;;;7.43;4.00;;;;;11.30;101178.00;;;;9967364;29;20242;-83
2024/03/19 07:01:24;;;;;;;11.87;4.53;;;;;11.40;101184.00;;;;9983173;29;20960;-82
2024/03/19 07:06:25;;;;;;;11.30;4.50;;;;;11.50;101181.00;;;;9966749;29;20233;-81
2024/03/19 07:11:27;;;;;;;9.80;4.50;;;;;11.60;101189.00;;;;9978081;29;20645;-83
2024/03/19 07:16:28;;;;;;;11.90;4.90;;;;;11.70;101187.00;;;;9953012;29;20225;-82
2024/03/19 07:21:29;;;;;;;16.03;4.60;;;;;11.80;101198.00;;;;9975695;29;20283;-83
2024/03/19 07:26:30;;;;;;;12.10;4.60;;;;;11.80;101210.00;;;;9965420;29;20383;-82
2024/03/19 07:31:31;;;;;;;16.10;6.23;;;;;11.90;101210.00;;;;9997522;29;20282;-83
2024/03/19 07:36:34;;;;;;;13.53;5.27;;;;;12.00;101205.00;;;;9983962;29;20746;-83
2024/03/19 07:41:36;;;;;;;13.40;5.40;;;;;12.30;101218.00;;;;9994119;29;20241;-84
2024/03/19 07:46:38;;;;;;;14.33;5.23;;;;;12.60;101220.00;;;;9951822;29;20230;-83
2024/03/19 07:51:39;;;;;;;10.03;4.60;;;;;12.90;101222.00;;;;9945751;29;20237;-83
2024/03/19 07:56:41;;;;;;;10.97;4.93;;;;;13.00;101211.00;;;;9949603;29;20309;-82
2024/03/19 08:01:43;;;;;;;11.00;5.43;;;;;13.30;101222.00;;;;9989147;29;20263;-79
2024/03/19 08:06:44;;;;;;;11.20;4.10;;;;;13.40;101231.00;;;;9958150;29;20728;-79
2024/03/19 08:11:45;;;;;;;18.20;5.47;;;;;13.60;101227.00;;;;9985761;29;20240;-79
2024/03/19 08:16:47;;;;;;;15.13;4.68;;;;;13.90;101222.00;;;;9956082;29;20234;-78
2024/03/19 08:21:48;;;;;;;7.70;4.00;;;;;14.20;101232.00;;;;9975458;29;20242;-79
2024/03/19 08:26:50;;;;;;;14.13;4.80;;;;;14.50;101224.00;;;;9979612;29;20233;-80
2024/03/19 08:31:52;;;;;;;7.95;3.97;;;;;14.70;101232.00;;;;9944325;29;20705;-78
2024/03/19 08:36:53;;;;;;;7.75;3.75;;;;;14.60;101223.00;;;;9963370;29;20321;-79
2024/03/19 08:41:54;;;;;;;15.75;4.22;;;;;14.60;101225.00;;;;9980820;29;20233;-79
2024/03/19 08:46:55;;;;;;;9.25;3.50;;;;;15.00;101222.00;;;;9968157;29;20225;-79
2024/03/19 08:51:56;;;;;;;10.52;3.65;;;;;15.40;101212.00;;;;9967657;29;20273;-79
2024/03/19 08:56:57;;;;;;;8.68;3.33;;;;;15.60;101219.00;;;;9985287;29;20908;-78
2024/03/19 09:02:00;;;;;;;7.35;2.70;;;;;16.60;101215.00;;;;9970151;29;20241;-79
2024/03/19 09:07:01;;;;;;;9.90;3.25;;;;;17.10;101227.00;;;;9951232;29;20321;-80
2024/03/19 09:12:03;;;;;;;8.88;2.75;;;;;17.20;101226.00;;;;9959828;29;20267;-83
2024/03/19 09:17:04;;;;;;;7.18;2.53;;;;;18.00;101226.00;;;;9966384;29;20612;-82
2024/03/19 09:22:06;;;;;;;7.43;2.50;;;;;18.60;101221.00;;;;9960809;29;20370;-83
2024/03/19 09:27:08;;;;;;;10.55;3.40;;;;;18.70;101218.00;;;;9976021;29;20229;-83
2024/03/19 09:32:09;;;;;;;6.90;2.50;;;;;18.60;101218.00;;;;9952327;29;20907;-82
2024/03/19 09:37:10;;;;;;;9.60;2.55;;;;;18.20;101225.00;;;;9977121;29;20253;-83
2024/03/19 09:42:20;;;;;;;11.05;3.25;;;;;17.90;101228.00;;;;9984982;29;20234;-82
2024/03/19 09:47:22;;;;;;;9.02;3.13;;;;;17.60;101223.00;;;;9947737;29;20225;-82
2024/03/19 09:52:24;;;;;;;8.45;3.10;;;;;17.80;101220.00;;;;9967465;29;20268;-83
2024/03/19 09:57:26;;;;;;;7.45;3.10;;;;;18.10;101225.00;;;;9969874;29;20237;-82
2024/03/19 10:02:27;;;;;;;5.68;3.22;;;;;17.90;101226.00;;;;9976166;29;20237;-82
2024/03/19 10:07:28;;;;;;;6.88;3.00;;;;;18.30;101233.00;;;;9987653;29;20259;-82
2024/03/19 10:12:31;;;;;;;6.47;2.58;;;;;17.80;101226.00;;;;9955297;29;20280;-82
2024/03/19 10:17:32;;;;;;;4.50;2.83;;;;;19.20;101210.00;;;;9979061;29;20320;-83
2024/03/19 10:22:34;;;;;;;11.35;3.60;;;;;19.60;101207.00;;;;9972194;29;20244;-83
2024/03/19 10:27:35;;;;;;;8.65;2.83;;;;;21.30;101204.00;;;;9970963;29;20245;-83
2024/03/19 10:32:37;;;;;;;8.70;2.70;;;;;21.90;101195.00;;;;9983169;29;20242;-82
2024/03/19 10:37:39;;;;;;;9.27;3.00;;;;;21.70;101199.00;;;;9955476;29;20269;-82
2024/03/19 10:42:41;;;;;;;6.35;2.40;;;;;22.10;101191.00;;;;10006301;29;20233;-83
2024/03/19 10:47:44;;;;;;;8.15;3.13;;;;;22.50;101180.00;;;;9994707;29;20242;-83
2024/03/19 10:52:47;;;;;;;10.10;3.05;;;;;22.70;101189.00;;;;9964562;29;20584;-83
2024/03/19 10:57:49;;;;;;;6.80;2.33;;;;;22.70;101192.00;;;;9983625;29;20317;-83
2024/03/19 11:02:51;;;;;;;8.35;2.20;;;;;22.20;101199.00;;;;9959134;29;20233;-83
2024/03/19 11:07:55;;;;;;;8.05;2.28;;;;;22.40;101189.00;;;;9972283;29;20715;-83
2024/03/19 11:13:06;;;;;;;6.40;2.05;;;;;21.90;101186.00;;;;9967784;29;20382;-83
2024/03/19 11:18:13;;;;;;;7.50;2.25;;;;;22.80;101191.00;;;;9981745;29;20252;-83
2024/03/19 11:23:19;;;;;;;8.57;2.15;;;;;21.50;101205.00;;;;9977290;29;20983;-83
2024/03/19 11:28:25;;;;;;;7.50;2.40;;;;;22.70;101197.00;;;;9979099;29;20236;-82
2024/03/19 11:33:26;;;;;;;6.10;2.08;;;;;22.40;101192.00;;;;9997761;29;20297;-81
2024/03/19 11:38:29;;;;;;;5.15;2.00;;;;;22.20;101199.00;;;;9997949;29;20713;-81
2024/03/19 11:43:31;;;;;;;8.23;2.40;;;;;21.80;101200.00;;;;9951443;29;20972;-82
2024/03/19 11:48:32;;;;;;;5.60;2.33;;;;;21.90;101208.00;;;;9963605;29;20931;-82
2024/03/19 11:53:34;;;;;;;6.13;2.55;;;;;22.50;101209.00;;;;9942646;29;20242;-82
2024/03/19 11:58:38;;;;;;;7.72;2.20;;;;;22.20;101217.00;;;;9985795;29;20245;-81
2024/03/19 12:03:40;;;;;;;6.40;2.20;;;;;21.30;101218.00;;;;9976078;29;20284;-81
2024/03/19 12:08:43;;;;;;;7.22;2.40;;;;;20.80;101214.00;;;;9977139;29;20262;-82
2024/03/19 12:13:44;;;;;;;6.80;1.98;;;;;20.30;101224.00;;;;9970271;29;20243;-82
2024/03/19 12:18:45;;;;;;;6.78;1.60;;;;;20.30;101213.00;;;;9950638;29;20327;-82
2024/03/19 12:23:46;;;;;;;3.72;1.48;;;;;20.60;101220.00;;;;9964398;29;20402;-82
2024/03/19 12:28:49;;;;;;;7.75;2.10;;;;;20.40;101222.00;;;;9976618;29;20260;-82
2024/03/19 12:34:05;;;;;;;6.13;1.98;;;;;20.70;101217.00;;;;9983730;29;20596;-82
2024/03/19 12:39:06;;;;;;;3.95;1.98;;;;;21.80;101222.00;;;;9968397;29;20738;-82
2024/03/19 12:44:08;;;;;;;8.52;2.40;;;;;21.70;101223.00;;;;9966506;29;20251;-82
2024/03/19 12:49:09;;;;;;;6.70;2.22;;;;;22.20;101224.00;;;;9969478;29;20653;-80
2024/03/19 12:54:10;;;;;;;5.53;2.67;;;;;21.50;101223.00;;;;9968941;29;20320;-82
2024/03/19 12:59:11;;;;;;;8.95;2.17;;;;;21.50;101212.00;;;;9964946;29;20237;-82
2024/03/19 13:04:13;;;;;;;4.93;2.50;;;;;21.60;101224.00;;;;9954266;29;20269;-81
2024/03/19 13:09:15;;;;;;;7.57;2.10;;;;;21.60;101202.00;;;;9978191;29;20275;-82
2024/03/19 13:14:16;;;;;;;5.95;2.35;;;;;22.30;101212.00;;;;9960968;29;20232;-81
2024/03/19 13:19:18;;;;;;;3.58;2.10;;;;;22.30;101202.00;;;;10011065;29;20233;-81
2024/03/19 13:24:19;;;;;;;5.75;1.98;;;;;22.10;101191.00;;;;9991122;29;20253;-81
2024/03/19 13:29:20;;;;;;;4.07;1.70;;;;;22.10;101202.00;;;;9976767;29;20233;-80
2024/03/19 13:34:21;;;;;;;4.93;2.03;;;;;22.10;101198.00;;;;9953334;29;20250;-81
2024/03/19 13:39:23;;;;;;;4.88;2.30;;;;;21.50;101196.00;;;;10001841;29;20240;-82
2024/03/19 13:44:34;;;;;;;8.73;2.25;;;;;21.60;101202.00;;;;10007508;29;20761;-84
2024/03/19 13:49:36;;;;;;;7.03;2.20;;;;;22.00;101206.00;;;;9986432;29;20297;-79
2024/03/19 13:54:38;;;;;;;4.75;2.60;;;;;21.30;101193.00;;;;9969739;29;20237;-80
2024/03/19 13:59:52;;;;;;;6.43;2.42;;;;;22.00;101183.00;;;;9986533;29;20241;-79
2024/03/19 14:04:55;;;;;;;7.68;1.95;;;;;22.80;101190.00;;;;9960896;29;20348;-79
2024/03/19 14:09:59;;;;;;;5.43;2.10;;;;;23.70;101161.00;;;;9948666;29;20244;-79
2024/03/19 14:15:02;;;;;;;6.80;1.77;;;;;23.80;101162.00;;;;9959929;29;20264;-79
2024/03/19 14:20:04;;;;;;;4.35;2.30;;;;;24.70;101138.00;;;;9976711;29;20225;-78
2024/03/19 14:25:05;;;;;;;4.38;1.58;;;;;25.20;101125.00;;;;9975215;29;20275;-78
2024/03/19 14:30:08;;;;;;;4.10;1.30;;;;;25.00;101159.00;;;;9985646;29;20258;-79
2024/03/19 14:35:10;;;;;;;4.30;2.13;;;;;23.90;101143.00;;;;9962332;29;22110;-81
2024/03/19 14:40:11;;;;;;;4.78;1.73;;;;;23.30;101158.00;;;;9976089;29;20308;-81
2024/03/19 14:45:12;;;;;;;4.57;1.45;;;;;23.10;101169.00;;;;9966948;29;20244;-80
2024/03/19 14:50:14;;;;;;;6.05;2.10;;;;;22.80;101169.00;;;;9964127;29;20933;-80
2024/03/19 14:55:15;;;;;;;4.75;1.55;;;;;21.80;101172.00;;;;9985368;29;20668;-79
2024/03/19 15:00:17;;;;;;;5.10;1.80;;;;;21.70;101179.00;;;;9983935;29;20313;-80
2024/03/19 15:05:18;;;;;;;4.75;1.75;;;;;21.30;101181.00;;;;9991975;29;20637;-79
2024/03/19 15:10:19;;;;;;;4.88;1.35;;;;;20.70;101179.00;;;;9979290;29;20229;-79
2024/03/19 15:15:20;;;;;;;4.22;1.52;;;;;20.10;101180.00;;;;9960323;29;20237;-81
2024/03/19 15:20:23;;;;;;;6.10;1.80;;;;;20.40;101179.00;;;;9960121;29;20229;-79
2024/03/19 15:25:26;;;;;;;2.50;1.50;;;;;20.60;101182.00;;;;9970181;29;20230;-81
2024/03/19 15:30:28;;;;;;;5.57;2.15;;;;;20.40;101197.00;;;;9951998;29;20237;-79
2024/03/19 15:35:30;;;;;;;6.05;1.60;;;;;20.00;101199.00;;;;9959588;29;20256;-80
2024/03/19 15:40:32;;;;;;;9.10;2.03;;;;;19.20;101204.00;;;;9983542;29;20226;-81
2024/03/19 15:45:34;;;;;;;5.43;1.65;;;;;19.40;101196.00;;;;9971150;29;20242;-81
2024/03/19 15:50:35;;;;;;;6.65;2.05;;;;;19.40;101198.00;;;;9981494;29;20249;-80
2024/03/19 15:55:36;;;;;;;4.38;1.40;;;;;19.20;101198.00;;;;9986689;29;20240;-80
2024/03/19 16:00:37;;;;;;;3.47;1.50;;;;;18.80;101198.00;;;;9970212;29;20637;-80
2024/03/19 16:05:41;;;;;;;5.70;1.33;;;;;18.60;101198.00;;;;9975149;29;20229;-80
2024/03/19 16:10:43;;;;;;;6.43;1.80;;;;;18.60;101209.00;;;;9978283;29;20238;-79
2024/03/19 16:15:44;;;;;;;6.47;1.63;;;;;18.50;101210.00;;;;9991999;29;21017;-79
2024/03/19 16:20:46;;;;;;;7.05;1.65;;;;;18.30;101210.00;;;;9964393;29;20249;-78
2024/03/19 16:25:47;;;;;;;4.57;1.52;;;;;18.10;101206.00;;;;9988692;29;20316;-79
2024/03/19 16:30:48;;;;;;;4.07;1.70;;;;;17.90;101209.00;;;;9985366;29;20875;-79
2024/03/19 16:35:49;;;;;;;6.65;1.95;;;;;17.80;101210.00;;;;9946577;29;20605;-79
2024/03/19 16:40:51;;;;;;;3.83;1.70;;;;;17.70;101204.00;;;;9963199;29;20313;-79
2024/03/19 16:45:52;;;;;;;4.45;1.60;;;;;17.50;101223.00;;;;9959671;29;20237;-79
2024/03/19 16:50:55;;;;;;;4.07;1.75;;;;;17.30;101226.00;;;;9988938;29;20332;-79
2024/03/19 16:55:57;;;;;;;4.57;1.30;;;;;17.20;101218.00;;;;9984805;29;20328;-83
2024/03/19 17:00:58;;;;;;;9.63;1.80;;;;;17.00;101231.00;;;;9969871;29;20954;-79
2024/03/19 17:05:59;;;;;;;3.83;1.60;;;;;16.90;101234.00;;;;9956364;29;20578;-78
2024/03/19 17:11:02;;;;;;;3.78;1.33;;;;;16.70;101240.00;;;;10005543;29;20308;-79
2024/03/19 17:16:05;;;;;;;4.72;2.40;;;;;16.60;101246.00;;;;9961637;29;20721;-79
2024/03/19 17:21:07;;;;;;;4.50;1.95;;;;;16.40;101244.00;;;;9957725;29;20294;-84
2024/03/19 17:26:10;;;;;;;4.53;2.50;;;;;16.10;101253.00;;;;9989930;29;20230;-84
2024/03/19 17:31:11;;;;;;;5.18;2.20;;;;;15.90;101255.00;;;;9964766;29;20257;-84
2024/03/19 17:36:12;;;;;;;6.22;2.40;;;;;15.60;101258.00;;;;9961936;29;20228;-84
2024/03/19 17:41:14;;;;;;;5.63;2.25;;;;;15.40;101264.00;;;;9956863;29;20247;-83
2024/03/19 17:46:15;;;;;;;5.05;1.80;;;;;15.20;101270.00;;;;9967134;29;20275;-82
2024/03/19 17:51:16;;;;;;;4.97;2.20;;;;;15.00;101279.00;;;;9959448;29;20234;-83
2024/03/19 17:56:17;;;;;;;5.90;2.05;;;;;14.80;101291.00;;;;9977083;29;20260;-82
2024/03/19 18:01:19;;;;;;;5.40;2.65;;;;;14.60;101290.00;;;;9991632;29;20834;-82
2024/03/19 18:06:21;;;;;;;10.05;2.35;;;;;14.50;101298.00;;;;9976383;29;20253;-83
2024/03/19 18:11:22;;;;;;;8.10;2.05;;;;;14.30;101309.00;;;;9992338;29;20313;-83
2024/03/19 18:16:23;;;;;;;9.25;2.03;;;;;14.10;101305.00;;;;9954278;29;20289;-83
2024/03/19 18:21:24;;;;;;;8.15;2.58;;;;;13.90;101306.00;;;;9965229;29;20241;-83
2024/03/19 18:26:26;;;;;;;7.13;2.63;;;;;13.70;101306.00;;;;9949866;29;20234;-83
2024/03/19 18:31:29;;;;;;;7.13;2.67;;;;;13.60;101310.00;;;;9958750;29;20237;-81
2024/03/19 18:36:30;;;;;;;3.35;2.50;;;;;13.40;101318.00;;;;9953715;29;20237;-82
2024/03/19 18:41:34;;;;;;;5.88;1.98;;;;;13.30;101321.00;;;;9969194;29;20274;-83
2024/03/19 18:46:35;;;;;;;5.27;2.10;;;;;13.20;101323.00;;;;9975678;29;20258;-82
2024/03/19 18:51:38;;;;;;;5.50;2.33;;;;;13.00;101331.00;;;;9982229;29;20324;-83
2024/03/19 18:56:39;;;;;;;7.73;2.57;;;;;12.90;101325.00;;;;9954690;29;20275;-82
2024/03/19 19:01:40;;;;;;;9.03;4.03;;;;;12.70;101327.00;;;;9962257;29;20233;-82
2024/03/19 19:06:42;;;;;;;11.93;4.20;;;;;12.60;101336.00;;;;9964208;29;20384;-81
2024/03/19 19:11:45;;;;;;;9.27;4.17;;;;;12.60;101325.00;;;;9952700;29;20661;-81
2024/03/19 19:16:46;;;;;;;8.73;3.77;;;;;12.80;101344.00;;;;9967001;29;20225;-81
2024/03/19 19:21:47;;;;;;;10.07;4.73;;;;;12.80;101341.00;;;;9993616;29;20242;-81
2024/03/19 19:26:49;;;;;;;12.73;5.27;;;;;12.70;101351.00;;;;9968126;29;20322;-82
2024/03/19 19:31:52;;;;;;;17.13;6.40;;;;;12.60;101362.00;;;;9979967;29;20332;-82
2024/03/19 19:36:53;;;;;;;7.60;4.70;;;;;12.50;101355.00;;;;9989202;29;20234;-82
2024/03/19 19:41:54;;;;;;;14.93;5.90;;;;;12.30;101375.00;;;;9966102;29;20233;-81
2024/03/19 19:46:55;;;;;;;10.67;4.80;;;;;12.20;101378.00;;;;9972584;29;20304;-82
2024/03/19 19:51:58;;;;;;;12.03;4.97;;;;;12.00;101380.00;;;;9970845;29;20257;-82
2024/03/19 19:56:59;;;;;;;13.13;5.50;;;;;11.90;101389.00;;;;9949197;29;20229;-82
2024/03/19 20:02:00;;;;;;;13.73;5.90;;;;;11.80;101389.00;;;;9950649;29;20320;-82
2024/03/19 20:07:02;;;;;;;14.63;6.03;;;;;11.60;101397.00;;;;9971599;29;20233;-82
2024/03/19 20:12:03;;;;;;;11.73;5.83;;;;;11.50;101402.00;;;;9988761;29;20245;-82
2024/03/19 20:17:11;;;;;;;13.97;5.93;;;;;11.40;101408.00;;;;9989539;29;20293;-82
2024/03/19 20:22:12;;;;;;;13.70;4.87;;;;;11.30;101412.00;;;;9974230;29;20801;-82
2024/03/19 20:27:13;;;;;;;15.77;5.60;;;;;11.10;101425.00;;;;9961593;29;20320;-82
2024/03/19 20:32:14;;;;;;;13.03;5.53;;;;;11.00;101425.00;;;;9963046;29;20241;-82
2024/03/19 20:37:15;;;;;;;15.17;6.33;;;;;10.90;101428.00;;;;9935713;29;20694;-81
2024/03/19 20:42:16;;;;;;;15.70;5.73;;;;;10.80;101434.00;;;;9960422;29;20253;-82
2024/03/19 20:47:19;;;;;;;13.50;6.00;;;;;10.70;101433.00;;;;9954215;29;20252;-82
2024/03/19 20:52:20;;;;;;;13.73;5.33;;;;;10.60;101430.00;;;;9989154;29;20252;-79
2024/03/19 20:57:21;;;;;;;11.17;4.30;;;;;10.50;101432.00;;;;9949944;29;20908;-80
2024/03/19 21:02:24;;;;;;;13.17;5.67;;;;;10.50;101426.00;;;;9946765;29;20264;-80
2024/03/19 21:07:25;;;;;;;14.83;5.00;;;;;10.40;101428.00;;;;9958778;29;20266;-79
2024/03/19 21:12:26;;;;;;;13.50;5.10;;;;;10.20;101420.00;;;;9951574;29;20896;-79
2024/03/19 21:17:28;;;;;;;12.57;5.47;;;;;10.10;101410.00;;;;9967679;29;20227;-79
2024/03/19 21:22:29;;;;;;;15.23;6.13;;;;;10.00;101418.00;;;;9967474;29;20260;-79
2024/03/19 21:27:30;;;;;;;13.13;6.10;;;;;9.90;101411.00;;;;9978773;29;20923;-79
2024/03/19 21:32:31;;;;;;;15.50;5.33;;;;;9.90;101415.00;;;;9979905;29;20254;-80
2024/03/19 21:37:34;;;;;;;17.30;6.47;;;;;9.80;101418.00;;;;9974123;29;20259;-80
2024/03/19 21:42:35;;;;;;;15.80;6.37;;;;;9.80;101406.00;;;;9963698;29;20381;-80
2024/03/19 21:47:37;;;;;;;13.63;7.30;;;;;9.70;101413.00;;;;9973709;29;20933;-80
2024/03/19 21:52:38;;;;;;;19.57;8.00;;;;;9.70;101406.00;;;;9990411;29;20244;-81
2024/03/19 21:57:39;;;;;;;17.13;8.13;;;;;9.60;101412.00;;;;9978028;29;20233;-80
2024/03/19 22:02:41;;;;;;;14.93;7.97;;;;;9.50;101405.00;;;;9984150;29;20248;-82
2024/03/19 22:07:43;;;;;;;15.07;7.73;;;;;9.50;101401.00;;;;9984074;29;20255;-82
2024/03/19 22:12:44;;;;;;;20.40;9.10;;;;;9.50;101398.00;;;;9989960;29;20630;-82
2024/03/19 22:17:45;;;;;;;23.87;11.17;;;;;9.40;101396.00;;;;10019003;29;20257;-82
2024/03/19 22:22:46;;;;;;;19.50;10.27;;;;;9.30;101382.00;;;;9966691;29;20312;-83
2024/03/19 22:27:47;;;;;;;19.23;9.67;;;;;9.30;101378.00;;;;9960067;29;20312;-82
2024/03/19 22:32:48;;;;;;;21.23;8.20;;;;;9.30;101393.00;;;;9983625;29;20269;-83
2024/03/19 22:37:50;;;;;;;16.03;9.30;;;;;9.30;101385.00;;;;10006117;29;20211;-82
2024/03/19 22:42:51;;;;;;;15.90;9.47;;;;;9.30;101391.00;;;;9979082;29;20593;-83
2024/03/19 22:47:52;;;;;;;18.03;9.53;;;;;9.30;101390.00;;;;9964025;29;20222;-82
2024/03/19 22:52:59;;;;;;;21.97;9.80;;;;;9.20;101389.00;;;;9957981;29;20250;-83
2024/03/19 22:58:01;;;;;;;19.93;9.53;;;;;9.10;101378.00;;;;9982538;29;20288;-83
2024/03/19 23:03:02;;;;;;;13.80;9.13;;;;;9.00;101380.00;;;;9983656;29;20696;-82
2024/03/19 23:08:04;;;;;;;16.30;9.10;;;;;9.00;101372.00;;;;9944421;29;20748;-82
2024/03/19 23:13:07;;;;;;;19.83;11.23;;;;;9.00;101372.00;;;;9958327;29;20240;-83
2024/03/19 23:18:08;;;;;;;18.97;10.77;;;;;9.00;101373.00;;;;9961175;29;20264;-83
2024/03/19 23:23:09;;;;;;;18.60;10.13;;;;;9.00;101377.00;;;;9998615;29;20248;-82
2024/03/19 23:28:11;;;;;;;18.97;9.73;;;;;8.90;101371.00;;;;9967910;29;20236;-82
2024/03/19 23:33:12;;;;;;;20.87;11.27;;;;;8.80;101369.00;;;;9973446;29;20261;-82
2024/03/19 23:38:14;;;;;;;19.57;10.73;;;;;8.80;101365.00;;;;9968390;29;20287;-82
2024/03/19 23:43:15;;;;;;;17.97;10.60;;;;;8.70;101363.00;;;;9950132;29;20325;-83
2024/03/19 23:48:16;;;;;;;17.40;10.83;;;;;8.70;101372.00;;;;9951663;29;20258;-82
2024/03/19 23:53:17;;;;;;;22.97;11.80;;;;;8.60;101368.00;;;;9962734;29;20695;-82
2024/03/19 23:58:19;;;;;;;17.70;9.73;;;;;8.60;101369.00;;;;9944689;29;20309;-82
